Pagina principale
METAR-TAF:

METAR-TAF

Aeroporti :

Aeroporto di Rabat-Salé

Rabat, Marocco

latitudine: 34-03N, longitudine: 006-46W, altezza: 84 m

Osservazione

Il bollettino è stato emesso 25 minuti fa, alle 03:00 UTC
Vento 5 kt da sud
Temperature 16°C
Umidità 88%
Pressione 1014 hPa
Visibilità: 8000 m
Nubi sparse ad un'altezza di 2600 ft

METAR: GMME 270300Z 19005KT 8000 SCT026 16/14 Q1014 NOSIG

Ora: 03:25 (03:25 UTC)

Previsione

Il bollettino è stato emesso 4 ore e 25 minuti fa, alle 23:00 UTC
Previsione valida dal 27 alle 00 UTC al 28 alle 06 UTC
Vento 12 kt da nord-ovest
Visibilità: 8000 m
Nubi sparse ad un'altezza di 1300 ft
Temporaneamente
dal 27 alle 02 UTC al 27 alle 06 UTC
Vento 8 kt da sud

TAF: GMME 262300Z 2700/2806 32012KT 8000 SCT013 TEMPO 2702/2706 18008KT

Osservazioni e previsioni meteorologiche di più di 4000 aeroporti (messaggi METAR e TAF).

Le stazioni disponibili sono rappresentate dai dischi gialli e rossi sulla carta.

Puntare il mouse per vedere il nome della stazione.

Clicca sopra per visualizzare le osservazioni e previsioni meteorologiche.

Per cambiare la mappa : fare clic sui pulsanti verdi con una croce nera per ingrandire, il pulsante verde con un trattino per diminuire, o sulla freccia verde per le mappe adiacenti.


METAR-TAF: